createdAt,value
2022-12-09T00:02:05.260Z,0.70
2022-12-09T00:04:59.450Z,1.23
2022-12-09T00:07:52.928Z,0.75
2022-12-09T00:10:46.932Z,1.10
2022-12-09T00:13:39.875Z,2.35
2022-12-09T00:16:32.982Z,1.23
2022-12-09T00:19:25.648Z,0.85
2022-12-09T00:22:18.600Z,0.65
2022-12-09T00:25:11.990Z,0.70
2022-12-09T00:28:06.496Z,0.88
2022-12-09T00:31:00.671Z,0.98
2022-12-09T00:33:56.445Z,0.80
2022-12-09T00:36:49.455Z,0.80
2022-12-09T00:39:42.595Z,0.88
2022-12-09T00:42:36.275Z,0.75
2022-12-09T00:45:31.214Z,0.73
2022-12-09T00:48:24.634Z,1.10
2022-12-09T00:51:21.975Z,0.80
2022-12-09T00:54:14.889Z,1.05
2022-12-09T00:57:07.885Z,0.57
2022-12-09T01:00:01.341Z,1.42
2022-12-09T01:02:56.372Z,0.63
2022-12-09T01:05:50.036Z,2.17
2022-12-09T01:08:43.191Z,2.20
2022-12-09T01:11:36.699Z,0.60
2022-12-09T01:14:30.178Z,0.90
2022-12-09T01:17:24.150Z,1.33
2022-12-09T01:20:19.465Z,1.02
2022-12-09T01:23:13.150Z,3.67
2022-12-09T01:26:08.146Z,6.50
2022-12-09T01:29:01.956Z,6.97
2022-12-09T01:31:55.557Z,7.20
2022-12-09T01:34:48.953Z,11.15
2022-12-09T01:37:43.791Z,8.50
2022-12-09T01:40:36.991Z,8.95
2022-12-09T01:43:30.602Z,9.32
2022-12-09T01:46:23.701Z,9.85
2022-12-09T01:49:24.669Z,9.10
2022-12-09T01:52:23.238Z,9.07
2022-12-09T01:55:18.158Z,9.75
2022-12-09T01:58:11.951Z,8.65
2022-12-09T02:01:05.426Z,8.95
2022-12-09T02:03:59.778Z,9.05
2022-12-09T02:06:53.298Z,9.43
2022-12-09T02:09:47.019Z,9.73
2022-12-09T02:12:51.334Z,10.95
2022-12-09T02:15:48.917Z,10.43
2022-12-09T02:18:45.524Z,11.07
2022-12-09T02:21:43.936Z,9.10
2022-12-09T02:24:47.111Z,8.25
2022-12-09T02:27:49.662Z,10.10
2022-12-09T02:30:53.037Z,8.82
2022-12-09T02:34:03.736Z,9.27
2022-12-09T02:37:05.775Z,11.05
2022-12-09T02:40:03.261Z,9.68
2022-12-09T02:42:58.873Z,8.07
2022-12-09T02:45:52.908Z,9.85
2022-12-09T02:48:52.287Z,8.40
2022-12-09T02:51:50.530Z,9.38
2022-12-09T02:54:46.241Z,8.85
2022-12-09T02:57:41.806Z,10.65
2022-12-09T03:00:35.190Z,9.10
2022-12-09T03:03:31.583Z,10.52
2022-12-09T03:06:29.014Z,9.15
2022-12-09T03:09:27.384Z,9.02
2022-12-09T03:12:21.570Z,9.38
2022-12-09T03:15:18.696Z,9.15
2022-12-09T03:18:16.021Z,9.18
2022-12-09T03:21:09.729Z,9.45
2022-12-09T03:24:03.948Z,8.43
2022-12-09T03:27:00.503Z,7.88
2022-12-09T03:29:55.501Z,9.98
2022-12-09T03:32:49.705Z,9.50
2022-12-09T03:35:45.193Z,9.40
2022-12-09T03:38:40.895Z,9.32
2022-12-09T03:41:35.399Z,10.00
2022-12-09T03:44:38.382Z,7.97
2022-12-09T03:47:32.222Z,8.15
2022-12-09T03:50:29.974Z,8.90
2022-12-09T03:53:28.486Z,8.98
2022-12-09T03:56:24.257Z,8.65
2022-12-09T03:59:18.062Z,9.02
2022-12-09T04:02:12.683Z,8.57
2022-12-09T04:05:07.107Z,9.82
2022-12-09T04:08:01.364Z,8.60
2022-12-09T04:10:55.136Z,9.23
2022-12-09T04:13:47.954Z,9.60
2022-12-09T04:16:40.947Z,9.68
2022-12-09T04:19:35.376Z,9.95
2022-12-09T04:22:29.554Z,9.63
2022-12-09T04:25:23.199Z,10.95
2022-12-09T04:28:16.054Z,9.10
2022-12-09T04:31:11.898Z,9.27
2022-12-09T04:34:09.552Z,11.65
2022-12-09T04:37:04.054Z,14.25
2022-12-09T04:40:27.714Z,13.05
2022-12-09T04:43:21.131Z,11.57
2022-12-09T04:46:15.427Z,11.35
2022-12-09T04:49:08.918Z,11.43
2022-12-09T04:52:04.012Z,9.73
2022-12-09T04:54:57.111Z,11.23
2022-12-09T04:57:50.592Z,11.25
2022-12-09T05:00:44.342Z,10.23
2022-12-09T05:03:38.665Z,13.02
2022-12-09T05:06:32.060Z,10.13
2022-12-09T05:09:26.670Z,10.60
2022-12-09T05:12:19.973Z,10.35
2022-12-09T05:15:13.267Z,11.10
2022-12-09T05:18:06.938Z,10.52
2022-12-09T05:21:00.226Z,11.15
2022-12-09T05:23:53.071Z,9.55
2022-12-09T05:26:47.946Z,10.40
2022-12-09T05:29:41.206Z,11.40
2022-12-09T05:32:34.265Z,9.07
2022-12-09T05:35:27.957Z,9.50
2022-12-09T05:38:20.867Z,12.13
2022-12-09T05:41:14.843Z,14.98
2022-12-09T05:44:11.161Z,9.43
2022-12-09T05:47:04.527Z,10.07
2022-12-09T05:50:01.729Z,12.02
2022-12-09T05:52:58.128Z,9.50
2022-12-09T05:55:52.539Z,8.82
2022-12-09T05:58:46.333Z,10.10
2022-12-09T06:01:41.466Z,9.45
2022-12-09T06:04:35.029Z,9.88
2022-12-09T06:07:28.634Z,11.27
2022-12-09T06:10:22.375Z,11.65
2022-12-09T06:13:16.505Z,12.20
2022-12-09T06:16:10.528Z,9.93
2022-12-09T06:19:05.946Z,12.70
2022-12-09T06:21:59.001Z,11.18
2022-12-09T06:24:56.891Z,10.02
2022-12-09T06:27:50.332Z,13.05
2022-12-09T06:30:43.457Z,10.93
2022-12-09T06:33:54.387Z,11.32
2022-12-09T06:36:50.897Z,10.57
2022-12-09T06:39:44.429Z,9.88
2022-12-09T06:42:38.333Z,9.88
2022-12-09T06:45:32.605Z,10.85
2022-12-09T06:48:26.642Z,11.52
2022-12-09T06:51:20.440Z,11.60
2022-12-09T06:54:15.964Z,11.57
2022-12-09T06:57:09.132Z,12.32
2022-12-09T07:00:02.807Z,10.75
2022-12-09T07:02:56.609Z,14.68
2022-12-09T07:05:50.796Z,11.60
2022-12-09T07:08:44.203Z,12.02
2022-12-09T07:11:39.184Z,10.98
2022-12-09T07:14:32.599Z,12.65
2022-12-09T07:17:26.311Z,13.20
2022-12-09T07:20:20.169Z,11.98
2022-12-09T07:23:13.872Z,12.23
2022-12-09T07:26:07.536Z,12.63
2022-12-09T07:29:05.215Z,13.00
2022-12-09T07:31:58.198Z,12.68
2022-12-09T07:34:51.966Z,15.80
2022-12-09T07:37:45.188Z,14.38
2022-12-09T07:40:39.268Z,14.10
2022-12-09T07:43:34.216Z,12.27
2022-12-09T07:46:28.771Z,12.52
2022-12-09T07:49:22.474Z,13.60
2022-12-09T07:52:16.359Z,14.73
2022-12-09T07:55:11.109Z,15.82
2022-12-09T07:58:05.107Z,12.88
2022-12-09T08:00:57.973Z,13.45
2022-12-09T08:03:53.283Z,15.43
2022-12-09T08:06:47.197Z,14.48
2022-12-09T08:09:41.159Z,14.27
2022-12-09T08:12:34.383Z,13.23
2022-12-09T08:15:27.297Z,13.35
2022-12-09T08:18:20.345Z,15.68
2022-12-09T08:21:17.603Z,15.52
2022-12-09T08:24:12.818Z,13.73
2022-12-09T08:27:06.721Z,13.45
2022-12-09T08:30:00.733Z,15.25
2022-12-09T08:32:54.183Z,11.23
2022-12-09T08:35:47.001Z,12.07
2022-12-09T08:38:42.026Z,22.20
2022-12-09T08:41:38.106Z,12.70
2022-12-09T08:44:35.562Z,12.52
2022-12-09T08:47:29.528Z,10.43
2022-12-09T08:50:24.178Z,11.57
2022-12-09T08:53:17.275Z,8.15
2022-12-09T08:56:14.808Z,9.63
2022-12-09T08:59:08.514Z,8.85
2022-12-09T09:02:02.167Z,9.60
2022-12-09T09:04:57.521Z,7.32
2022-12-09T09:07:51.485Z,6.50
2022-12-09T09:10:45.357Z,9.70
2022-12-09T09:13:41.662Z,8.13
2022-12-09T09:16:36.335Z,7.00
2022-12-09T09:19:29.577Z,11.07
2022-12-09T09:22:23.009Z,7.47
2022-12-09T09:25:16.406Z,7.00
2022-12-09T09:28:10.628Z,5.65
2022-12-09T09:31:07.557Z,5.78
2022-12-09T09:34:01.231Z,9.60
2022-12-09T09:36:54.847Z,16.83
2022-12-09T09:39:48.566Z,9.02
2022-12-09T09:42:47.827Z,8.35
2022-12-09T09:45:41.077Z,10.75
2022-12-09T09:48:37.536Z,9.05
2022-12-09T09:51:35.032Z,19.60
2022-12-09T09:54:28.665Z,20.23
2022-12-09T09:57:29.098Z,16.15
2022-12-09T10:00:26.648Z,15.43
2022-12-09T10:03:33.832Z,16.95
2022-12-09T10:06:37.435Z,10.27
2022-12-09T10:09:39.429Z,24.38
2022-12-09T10:12:40.462Z,16.90
2022-12-09T10:15:42.081Z,17.98
2022-12-09T10:18:39.737Z,12.05
2022-12-09T10:21:38.073Z,14.48
2022-12-09T10:24:39.955Z,8.68
2022-12-09T10:27:37.380Z,8.48
2022-12-09T10:30:37.306Z,8.38
2022-12-09T10:33:38.991Z,9.90
2022-12-09T10:36:36.567Z,8.93
2022-12-09T10:39:30.501Z,12.85
2022-12-09T10:42:53.016Z,7.53
2022-12-09T10:49:04.103Z,9.85
2022-12-09T10:51:59.403Z,6.05
2022-12-09T10:54:52.403Z,7.45
2022-12-09T10:57:45.318Z,7.82
2022-12-09T11:00:39.023Z,5.20
2022-12-09T11:03:34.406Z,10.35
2022-12-09T11:06:32.303Z,5.13
2022-12-09T11:09:32.484Z,5.40
2022-12-09T11:12:40.473Z,8.73
2022-12-09T11:15:39.154Z,6.15
2022-12-09T11:18:38.857Z,7.13
2022-12-09T11:21:35.167Z,6.60
2022-12-09T11:24:30.192Z,6.07
2022-12-09T11:27:30.280Z,5.90
2022-12-09T11:30:30.792Z,7.90
2022-12-09T11:33:29.728Z,7.13
2022-12-09T11:36:29.971Z,4.57
2022-12-09T11:39:27.503Z,6.15
2022-12-09T11:42:24.703Z,8.82
2022-12-09T11:45:23.765Z,9.93
2022-12-09T11:48:32.966Z,7.10
2022-12-09T11:51:30.777Z,5.70
2022-12-09T11:54:29.826Z,5.15
2022-12-09T11:57:31.630Z,4.50
2022-12-09T12:00:27.655Z,6.32
2022-12-09T12:03:24.926Z,7.43
2022-12-09T12:06:23.083Z,3.92
2022-12-09T12:09:22.145Z,5.13
2022-12-09T12:12:20.307Z,4.53
2022-12-09T12:15:21.868Z,6.75
2022-12-09T12:18:20.296Z,4.82
2022-12-09T12:21:36.874Z,4.50
2022-12-09T12:25:00.448Z,3.20
2022-12-09T12:28:16.022Z,4.75
2022-12-09T12:31:26.184Z,3.80
2022-12-09T12:34:26.515Z,4.75
2022-12-09T12:37:31.345Z,4.03
2022-12-09T12:40:33.403Z,3.85
2022-12-09T12:44:05.392Z,3.60
2022-12-09T12:47:09.233Z,4.55
2022-12-09T12:50:25.529Z,5.15
2022-12-09T12:53:30.059Z,4.68
2022-12-09T12:56:27.955Z,2.75
2022-12-09T12:59:32.220Z,5.47
2022-12-09T13:02:36.207Z,3.40
2022-12-09T13:05:34.995Z,3.35
2022-12-09T13:08:36.525Z,4.72
2022-12-09T13:11:34.325Z,3.38
2022-12-09T13:14:32.301Z,3.85
2022-12-09T13:17:30.266Z,3.85
2022-12-09T13:20:27.009Z,2.58
2022-12-09T13:23:49.324Z,2.33
2022-12-09T13:26:49.878Z,3.22
2022-12-09T13:29:50.468Z,3.33
2022-12-09T13:33:18.508Z,3.35
2022-12-09T13:36:20.201Z,2.58
2022-12-09T13:39:16.818Z,3.85
2022-12-09T13:42:57.188Z,2.65
2022-12-09T13:45:54.322Z,2.85
2022-12-09T13:48:52.938Z,3.50
2022-12-09T13:51:49.720Z,3.08
2022-12-09T13:54:48.926Z,2.72
2022-12-09T13:57:50.394Z,4.22
2022-12-09T14:00:44.998Z,2.28
2022-12-09T14:03:54.061Z,2.58
2022-12-09T14:06:57.880Z,3.67
2022-12-09T14:09:55.744Z,3.88
2022-12-09T14:13:25.413Z,3.05
2022-12-09T14:16:34.780Z,2.75
2022-12-09T14:19:53.371Z,3.65
2022-12-09T14:23:21.922Z,2.47
2022-12-09T14:26:35.086Z,2.30
2022-12-09T14:29:44.985Z,4.00
2022-12-09T14:32:54.011Z,3.20
2022-12-09T14:35:51.184Z,3.67
2022-12-09T14:39:08.281Z,2.17
2022-12-09T14:42:10.366Z,4.40
2022-12-09T14:45:17.216Z,2.67
2022-12-09T14:48:12.407Z,3.70
2022-12-09T14:51:15.614Z,3.25
2022-12-09T14:54:15.342Z,2.08
2022-12-09T14:57:24.734Z,4.40
2022-12-09T15:00:31.800Z,1.73
2022-12-09T15:03:36.993Z,1.88
2022-12-09T15:06:42.644Z,2.10
2022-12-09T15:09:35.499Z,1.48
2022-12-09T15:12:32.706Z,2.70
2022-12-09T15:15:27.236Z,2.88
2022-12-09T15:18:22.719Z,2.13
2022-12-09T15:21:27.255Z,2.60
2022-12-09T15:24:22.151Z,2.38
2022-12-09T15:27:18.672Z,2.28
2022-12-09T15:30:23.288Z,2.13
2022-12-09T15:33:19.605Z,1.85
2022-12-09T15:36:15.435Z,1.98
2022-12-09T15:39:12.061Z,2.75
2022-12-09T15:42:11.077Z,2.88
2022-12-09T15:45:09.949Z,2.08
2022-12-09T15:48:12.074Z,2.70
2022-12-09T15:51:08.944Z,4.03
2022-12-09T15:54:05.681Z,2.47
2022-12-09T15:57:00.975Z,2.20
2022-12-09T15:59:59.185Z,2.05
2022-12-09T16:02:52.698Z,2.40
2022-12-09T16:05:54.006Z,2.40
2022-12-09T16:08:47.471Z,2.95
2022-12-09T16:11:42.012Z,1.85
2022-12-09T16:14:44.017Z,3.70
2022-12-09T16:17:51.376Z,1.52
2022-12-09T16:20:45.885Z,1.65
2022-12-09T16:23:41.182Z,2.70
2022-12-09T16:26:38.042Z,2.20
2022-12-09T16:29:35.492Z,2.33
2022-12-09T16:32:31.450Z,2.45
2022-12-09T16:35:27.337Z,1.75
2022-12-09T16:38:20.772Z,1.80
2022-12-09T16:41:15.229Z,1.67
2022-12-09T16:44:19.622Z,1.58
2022-12-09T16:47:15.101Z,1.50
2022-12-09T16:50:10.259Z,2.08
2022-12-09T16:53:05.484Z,1.67
2022-12-09T16:56:00.665Z,2.60
2022-12-09T16:58:55.431Z,1.80
2022-12-09T17:01:48.314Z,1.85
2022-12-09T17:04:41.921Z,1.10
2022-12-09T17:07:35.664Z,1.63
2022-12-09T17:10:28.840Z,1.38
2022-12-09T17:13:22.410Z,1.90
2022-12-09T17:16:17.025Z,2.33
2022-12-09T17:19:10.727Z,2.35
2022-12-09T17:22:03.391Z,2.25
2022-12-09T17:24:56.415Z,2.60
2022-12-09T17:27:49.551Z,1.52
2022-12-09T17:30:42.461Z,1.90
2022-12-09T17:33:37.131Z,2.42
2022-12-09T17:36:30.517Z,1.88
2022-12-09T17:39:24.763Z,2.58
2022-12-09T17:42:17.707Z,1.63
2022-12-09T17:45:10.955Z,1.60
2022-12-09T17:48:04.982Z,1.80
2022-12-09T17:51:00.573Z,1.80
2022-12-09T17:53:54.680Z,1.10
2022-12-09T17:56:47.823Z,1.83
2022-12-09T17:59:40.724Z,1.92
2022-12-09T18:02:33.632Z,1.63
2022-12-09T18:05:26.803Z,2.22
2022-12-09T18:08:21.085Z,1.55
2022-12-09T18:11:14.691Z,1.17
2022-12-09T18:14:07.989Z,2.65
2022-12-09T18:17:01.781Z,1.35
2022-12-09T18:19:55.025Z,1.75
2022-12-09T18:22:48.572Z,2.30
2022-12-09T18:25:43.432Z,2.15
2022-12-09T18:28:36.437Z,1.20
2022-12-09T18:31:29.681Z,1.33
2022-12-09T18:34:23.202Z,2.30
2022-12-09T18:37:16.509Z,1.92
2022-12-09T18:40:10.764Z,2.40
2022-12-09T18:43:05.140Z,1.65
2022-12-09T18:46:02.846Z,1.10
2022-12-09T18:48:57.686Z,1.65
2022-12-09T18:51:52.142Z,1.70
2022-12-09T18:54:47.584Z,1.40
2022-12-09T18:57:40.319Z,1.58
2022-12-09T19:00:34.904Z,1.75
2022-12-09T19:03:27.613Z,1.40
2022-12-09T19:06:23.299Z,1.70
2022-12-09T19:09:19.292Z,1.67
2022-12-09T19:12:45.367Z,1.67
2022-12-09T19:15:25.669Z,1.63
2022-12-09T19:18:20.339Z,2.72
2022-12-09T19:21:16.280Z,1.00
2022-12-09T19:24:15.325Z,2.30
2022-12-09T19:27:09.216Z,1.67
2022-12-09T19:30:02.714Z,1.17
2022-12-09T19:32:55.626Z,0.93
2022-12-09T19:35:50.114Z,1.45
2022-12-09T19:38:43.662Z,1.58
2022-12-09T19:41:37.853Z,1.30
2022-12-09T19:44:59.575Z,1.50
2022-12-09T19:47:43.607Z,1.27
2022-12-09T19:50:37.154Z,1.27
2022-12-09T19:53:32.046Z,1.02
2022-12-09T19:56:25.932Z,1.80
2022-12-09T19:59:18.707Z,1.20
2022-12-09T20:02:13.888Z,0.70
2022-12-09T20:05:07.189Z,1.52
2022-12-09T20:08:00.764Z,1.20
2022-12-09T20:10:54.938Z,1.48
2022-12-09T20:13:48.302Z,1.00
2022-12-09T20:16:42.049Z,1.30
2022-12-09T20:19:36.714Z,1.10
2022-12-09T20:22:30.033Z,1.35
2022-12-09T20:25:23.343Z,1.05
2022-12-09T20:28:17.913Z,1.13
2022-12-09T20:31:13.469Z,1.55
2022-12-09T20:34:09.859Z,1.75
2022-12-09T20:37:02.961Z,1.45
2022-12-09T20:39:55.865Z,1.42
2022-12-09T20:42:48.714Z,2.08
2022-12-09T20:45:43.045Z,2.50
2022-12-09T20:48:37.634Z,1.15
2022-12-09T20:51:33.111Z,1.23
2022-12-09T20:54:26.847Z,1.83
2022-12-09T20:57:20.019Z,1.25
2022-12-09T21:00:14.647Z,1.92
2022-12-09T21:03:08.930Z,0.65
2022-12-09T21:06:01.741Z,1.25
2022-12-09T21:08:54.918Z,0.90
2022-12-09T21:11:48.840Z,1.13
2022-12-09T21:14:41.834Z,1.27
2022-12-09T21:17:34.880Z,0.98
2022-12-09T21:20:29.263Z,1.27
2022-12-09T21:23:33.904Z,0.95
2022-12-09T21:26:28.711Z,1.48
2022-12-09T21:29:25.742Z,1.48
2022-12-09T21:32:21.713Z,1.65
2022-12-09T21:35:14.653Z,1.48
2022-12-09T21:38:10.597Z,0.77
2022-12-09T21:41:04.904Z,0.82
2022-12-09T21:43:58.643Z,1.02
2022-12-09T21:46:51.884Z,1.80
2022-12-09T21:49:45.121Z,1.10
2022-12-09T21:52:38.719Z,2.05
2022-12-09T21:55:34.694Z,1.35
2022-12-09T21:58:27.582Z,1.27
2022-12-09T22:01:22.783Z,0.88
2022-12-09T22:04:17.035Z,1.23
2022-12-09T22:07:10.035Z,1.58
2022-12-09T22:10:03.096Z,0.80
2022-12-09T22:12:58.326Z,0.70
2022-12-09T22:15:52.071Z,0.90
2022-12-09T22:18:46.288Z,1.25
2022-12-09T22:21:39.486Z,0.98
2022-12-09T22:24:32.955Z,1.58
2022-12-09T22:27:26.122Z,1.42
2022-12-09T22:30:21.457Z,0.85
2022-12-09T22:33:14.786Z,1.00
2022-12-09T22:36:10.142Z,1.23
2022-12-09T22:39:03.690Z,0.60
2022-12-09T22:41:57.083Z,1.90
2022-12-09T22:44:50.739Z,2.55
2022-12-09T22:47:45.504Z,0.80
2022-12-09T22:50:38.948Z,1.65
2022-12-09T22:53:31.710Z,0.80
2022-12-09T22:56:26.183Z,0.98
2022-12-09T22:59:19.970Z,1.60
2022-12-09T23:02:13.586Z,1.77
2022-12-09T23:05:09.585Z,1.05
2022-12-09T23:08:02.817Z,1.42
2022-12-09T23:10:56.127Z,1.13
2022-12-09T23:13:50.362Z,1.27
2022-12-09T23:16:44.821Z,0.88
2022-12-09T23:19:37.361Z,1.77
2022-12-09T23:22:32.165Z,0.98
2022-12-09T23:25:25.941Z,0.93
2022-12-09T23:28:19.184Z,1.73
2022-12-09T23:31:15.710Z,0.80
2022-12-09T23:34:10.163Z,1.58
2022-12-09T23:37:03.527Z,1.45
2022-12-09T23:39:58.446Z,0.70
2022-12-09T23:42:54.155Z,0.95
2022-12-09T23:45:49.141Z,1.30
2022-12-09T23:48:43.383Z,0.73
2022-12-09T23:51:39.328Z,0.98
2022-12-09T23:54:33.218Z,1.02
2022-12-09T23:57:28.125Z,1.00
